Terminal Aerodrome Forecast
Issued by NWS Sioux Falls, SD

Home | Current Version | Previous Version | Text Only | Print | Product List | Glossary On
Versions: 1 2 3 4 5 6 7 8 9 10 11 12 13 14 15 16 17 18 19
000
FTUS43 KFSD 190526
TAFHON
TAF
KHON 190526Z 1906/2006 36013G22KT P6SM OVC012
     FM191000 36012G23KT P6SM OVC010
     FM191700 02016G24KT P6SM BKN040
     FM200000 03016G24KT P6SM BKN250
     FM200200 03011KT P6SM BKN250=

USA.gov is the U.S. government's official web portal to all federal, state and local government web resources and services.